sensor_id;sensor_type;location;lat;lon;timestamp;P1;durP1;ratioP1;P2;durP2;ratioP2
41631;SDS011;37452;51.938;4.624;2022-11-20T00:03:42;15.20;;;5.83;;
41631;SDS011;37452;51.938;4.624;2022-11-20T00:06:09;10.55;;;5.47;;
41631;SDS011;37452;51.938;4.624;2022-11-20T00:08:36;10.70;;;5.97;;
41631;SDS011;37452;51.938;4.624;2022-11-20T00:11:09;12.18;;;6.07;;
41631;SDS011;37452;51.938;4.624;2022-11-20T00:13:36;13.83;;;6.43;;
41631;SDS011;37452;51.938;4.624;2022-11-20T00:16:02;10.65;;;6.25;;
41631;SDS011;37452;51.938;4.624;2022-11-20T00:18:29;10.30;;;5.37;;
41631;SDS011;37452;51.938;4.624;2022-11-20T00:23:31;9.43;;;5.57;;
41631;SDS011;37452;51.938;4.624;2022-11-20T00:25:56;10.23;;;5.78;;
41631;SDS011;37452;51.938;4.624;2022-11-20T00:28:27;10.97;;;5.50;;
41631;SDS011;37452;51.938;4.624;2022-11-20T00:30:59;10.07;;;5.78;;
41631;SDS011;37452;51.938;4.624;2022-11-20T00:33:28;12.10;;;6.03;;
41631;SDS011;37452;51.938;4.624;2022-11-20T00:35:56;12.63;;;6.07;;
41631;SDS011;37452;51.938;4.624;2022-11-20T00:38:24;13.87;;;6.67;;
41631;SDS011;37452;51.938;4.624;2022-11-20T00:40:54;11.95;;;6.50;;
41631;SDS011;37452;51.938;4.624;2022-11-20T00:43:21;11.83;;;6.13;;
41631;SDS011;37452;51.938;4.624;2022-11-20T00:45:46;11.68;;;6.30;;
41631;SDS011;37452;51.938;4.624;2022-11-20T00:48:11;12.82;;;6.25;;
41631;SDS011;37452;51.938;4.624;2022-11-20T00:50:37;9.90;;;5.38;;
41631;SDS011;37452;51.938;4.624;2022-11-20T00:53:02;11.80;;;6.43;;
41631;SDS011;37452;51.938;4.624;2022-11-20T00:55:28;13.13;;;6.57;;
41631;SDS011;37452;51.938;4.624;2022-11-20T00:57:53;12.45;;;6.32;;
41631;SDS011;37452;51.938;4.624;2022-11-20T01:00:19;13.23;;;6.60;;
41631;SDS011;37452;51.938;4.624;2022-11-20T01:02:44;21.73;;;7.35;;
41631;SDS011;37452;51.938;4.624;2022-11-20T01:05:10;9.98;;;6.28;;
41631;SDS011;37452;51.938;4.624;2022-11-20T01:07:35;14.80;;;7.03;;
41631;SDS011;37452;51.938;4.624;2022-11-20T01:10:01;11.73;;;6.10;;
41631;SDS011;37452;51.938;4.624;2022-11-20T01:12:26;19.80;;;7.30;;
41631;SDS011;37452;51.938;4.624;2022-11-20T01:14:52;12.82;;;6.85;;
41631;SDS011;37452;51.938;4.624;2022-11-20T01:17:17;13.18;;;6.53;;
41631;SDS011;37452;51.938;4.624;2022-11-20T01:19:43;13.70;;;6.70;;
41631;SDS011;37452;51.938;4.624;2022-11-20T01:22:09;12.95;;;6.50;;
41631;SDS011;37452;51.938;4.624;2022-11-20T01:24:34;16.30;;;6.78;;
41631;SDS011;37452;51.938;4.624;2022-11-20T01:27:00;12.27;;;6.35;;
41631;SDS011;37452;51.938;4.624;2022-11-20T01:29:25;13.65;;;6.90;;
41631;SDS011;37452;51.938;4.624;2022-11-20T01:31:51;14.80;;;7.15;;
41631;SDS011;37452;51.938;4.624;2022-11-20T01:34:18;14.80;;;6.93;;
41631;SDS011;37452;51.938;4.624;2022-11-20T01:36:44;13.33;;;6.67;;
41631;SDS011;37452;51.938;4.624;2022-11-20T01:39:14;13.10;;;7.50;;
41631;SDS011;37452;51.938;4.624;2022-11-20T01:41:45;16.63;;;7.40;;
41631;SDS011;37452;51.938;4.624;2022-11-20T01:44:48;15.00;;;7.60;;
41631;SDS011;37452;51.938;4.624;2022-11-20T01:47:37;15.53;;;7.20;;
41631;SDS011;37452;51.938;4.624;2022-11-20T01:52:39;13.10;;;6.90;;
41631;SDS011;37452;51.938;4.624;2022-11-20T01:57:37;13.23;;;6.77;;
41631;SDS011;37452;51.938;4.624;2022-11-20T02:00:09;13.20;;;6.77;;
41631;SDS011;37452;51.938;4.624;2022-11-20T02:02:37;10.80;;;6.23;;
41631;SDS011;37452;51.938;4.624;2022-11-20T02:05:09;13.93;;;7.37;;
41631;SDS011;37452;51.938;4.624;2022-11-20T02:07:42;13.47;;;6.17;;
41631;SDS011;37452;51.938;4.624;2022-11-20T02:10:08;12.83;;;6.47;;
41631;SDS011;37452;51.938;4.624;2022-11-20T02:12:34;12.90;;;6.80;;
41631;SDS011;37452;51.938;4.624;2022-11-20T02:15:18;13.30;;;7.07;;
41631;SDS011;37452;51.938;4.624;2022-11-20T02:17:44;13.25;;;6.45;;
41631;SDS011;37452;51.938;4.624;2022-11-20T02:20:09;13.75;;;6.97;;
41631;SDS011;37452;51.938;4.624;2022-11-20T02:22:37;14.63;;;6.43;;
41631;SDS011;37452;51.938;4.624;2022-11-20T02:25:10;11.80;;;6.37;;
41631;SDS011;37452;51.938;4.624;2022-11-20T02:27:36;13.57;;;6.90;;
41631;SDS011;37452;51.938;4.624;2022-11-20T02:30:03;14.98;;;7.00;;
41631;SDS011;37452;51.938;4.624;2022-11-20T02:32:33;15.10;;;7.43;;
41631;SDS011;37452;51.938;4.624;2022-11-20T02:37:44;12.80;;;6.47;;
41631;SDS011;37452;51.938;4.624;2022-11-20T02:40:13;15.90;;;6.67;;
41631;SDS011;37452;51.938;4.624;2022-11-20T02:42:39;12.98;;;6.15;;
41631;SDS011;37452;51.938;4.624;2022-11-20T02:45:05;13.48;;;5.95;;
41631;SDS011;37452;51.938;4.624;2022-11-20T02:47:31;12.67;;;7.27;;
41631;SDS011;37452;51.938;4.624;2022-11-20T02:49:57;11.45;;;6.63;;
41631;SDS011;37452;51.938;4.624;2022-11-20T02:52:23;13.35;;;6.68;;
41631;SDS011;37452;51.938;4.624;2022-11-20T02:54:49;11.63;;;6.05;;
41631;SDS011;37452;51.938;4.624;2022-11-20T02:57:14;13.80;;;6.30;;
41631;SDS011;37452;51.938;4.624;2022-11-20T02:59:40;9.73;;;5.53;;
41631;SDS011;37452;51.938;4.624;2022-11-20T03:02:06;10.05;;;5.10;;
41631;SDS011;37452;51.938;4.624;2022-11-20T03:04:31;9.88;;;5.55;;
41631;SDS011;37452;51.938;4.624;2022-11-20T03:06:57;14.05;;;6.82;;
41631;SDS011;37452;51.938;4.624;2022-11-20T03:09:22;13.00;;;6.28;;
41631;SDS011;37452;51.938;4.624;2022-11-20T03:11:48;11.70;;;5.65;;
41631;SDS011;37452;51.938;4.624;2022-11-20T03:14:13;11.70;;;6.10;;
41631;SDS011;37452;51.938;4.624;2022-11-20T03:16:39;12.90;;;6.82;;
41631;SDS011;37452;51.938;4.624;2022-11-20T03:19:04;12.40;;;7.25;;
41631;SDS011;37452;51.938;4.624;2022-11-20T03:21:32;14.95;;;6.47;;
41631;SDS011;37452;51.938;4.624;2022-11-20T03:23:58;11.20;;;6.77;;
41631;SDS011;37452;51.938;4.624;2022-11-20T03:26:24;12.00;;;6.07;;
41631;SDS011;37452;51.938;4.624;2022-11-20T03:28:53;13.43;;;6.43;;
41631;SDS011;37452;51.938;4.624;2022-11-20T03:31:23;12.53;;;5.83;;
41631;SDS011;37452;51.938;4.624;2022-11-20T03:33:51;12.40;;;6.20;;
41631;SDS011;37452;51.938;4.624;2022-11-20T03:36:17;17.90;;;7.18;;
41631;SDS011;37452;51.938;4.624;2022-11-20T03:38:45;13.27;;;7.30;;
41631;SDS011;37452;51.938;4.624;2022-11-20T03:41:12;14.30;;;7.27;;
41631;SDS011;37452;51.938;4.624;2022-11-20T03:43:39;15.87;;;6.93;;
41631;SDS011;37452;51.938;4.624;2022-11-20T03:46:05;14.33;;;6.93;;
41631;SDS011;37452;51.938;4.624;2022-11-20T03:48:31;13.37;;;6.93;;
41631;SDS011;37452;51.938;4.624;2022-11-20T03:51:10;14.55;;;7.38;;
41631;SDS011;37452;51.938;4.624;2022-11-20T03:53:37;12.87;;;7.47;;
41631;SDS011;37452;51.938;4.624;2022-11-20T03:56:04;12.83;;;6.70;;
41631;SDS011;37452;51.938;4.624;2022-11-20T03:58:29;13.45;;;6.80;;
41631;SDS011;37452;51.938;4.624;2022-11-20T04:00:55;9.57;;;5.53;;
41631;SDS011;37452;51.938;4.624;2022-11-20T04:03:21;12.10;;;6.05;;
41631;SDS011;37452;51.938;4.624;2022-11-20T04:05:46;11.98;;;6.47;;
41631;SDS011;37452;51.938;4.624;2022-11-20T04:08:12;12.85;;;7.05;;
41631;SDS011;37452;51.938;4.624;2022-11-20T04:10:37;14.57;;;6.43;;
41631;SDS011;37452;51.938;4.624;2022-11-20T04:13:03;13.95;;;6.47;;
41631;SDS011;37452;51.938;4.624;2022-11-20T04:15:28;15.73;;;7.13;;
41631;SDS011;37452;51.938;4.624;2022-11-20T04:17:54;11.23;;;6.28;;
41631;SDS011;37452;51.938;4.624;2022-11-20T04:20:19;16.35;;;7.32;;
41631;SDS011;37452;51.938;4.624;2022-11-20T04:22:45;13.85;;;6.70;;
41631;SDS011;37452;51.938;4.624;2022-11-20T04:25:10;12.82;;;7.20;;
41631;SDS011;37452;51.938;4.624;2022-11-20T04:27:36;15.65;;;7.55;;
41631;SDS011;37452;51.938;4.624;2022-11-20T04:30:01;14.40;;;7.50;;
41631;SDS011;37452;51.938;4.624;2022-11-20T04:32:27;12.90;;;6.85;;
41631;SDS011;37452;51.938;4.624;2022-11-20T04:34:52;12.95;;;6.95;;
41631;SDS011;37452;51.938;4.624;2022-11-20T04:37:18;11.98;;;6.53;;
41631;SDS011;37452;51.938;4.624;2022-11-20T04:39:43;12.32;;;7.45;;
41631;SDS011;37452;51.938;4.624;2022-11-20T04:42:09;13.10;;;7.22;;
41631;SDS011;37452;51.938;4.624;2022-11-20T04:44:53;15.77;;;7.80;;
41631;SDS011;37452;51.938;4.624;2022-11-20T04:49:51;11.63;;;6.43;;
41631;SDS011;37452;51.938;4.624;2022-11-20T04:52:16;16.88;;;7.22;;
41631;SDS011;37452;51.938;4.624;2022-11-20T04:54:42;15.20;;;7.57;;
41631;SDS011;37452;51.938;4.624;2022-11-20T04:57:07;14.70;;;7.60;;
41631;SDS011;37452;51.938;4.624;2022-11-20T04:59:33;13.15;;;6.82;;
41631;SDS011;37452;51.938;4.624;2022-11-20T05:01:58;15.05;;;7.47;;
41631;SDS011;37452;51.938;4.624;2022-11-20T05:04:24;15.38;;;7.05;;
41631;SDS011;37452;51.938;4.624;2022-11-20T05:06:49;16.00;;;8.93;;
41631;SDS011;37452;51.938;4.624;2022-11-20T05:09:15;14.88;;;7.97;;
41631;SDS011;37452;51.938;4.624;2022-11-20T05:11:40;15.18;;;7.57;;
41631;SDS011;37452;51.938;4.624;2022-11-20T05:14:06;15.27;;;7.30;;
41631;SDS011;37452;51.938;4.624;2022-11-20T05:16:33;12.10;;;7.10;;
41631;SDS011;37452;51.938;4.624;2022-11-20T05:18:59;12.53;;;7.30;;
41631;SDS011;37452;51.938;4.624;2022-11-20T05:21:25;13.82;;;7.43;;
41631;SDS011;37452;51.938;4.624;2022-11-20T05:23:50;14.85;;;7.85;;
41631;SDS011;37452;51.938;4.624;2022-11-20T05:26:17;15.93;;;8.23;;
41631;SDS011;37452;51.938;4.624;2022-11-20T05:28:46;17.93;;;8.43;;
41631;SDS011;37452;51.938;4.624;2022-11-20T05:31:16;15.88;;;8.00;;
41631;SDS011;37452;51.938;4.624;2022-11-20T05:33:43;16.17;;;7.90;;
41631;SDS011;37452;51.938;4.624;2022-11-20T05:36:10;17.33;;;8.57;;
41631;SDS011;37452;51.938;4.624;2022-11-20T05:38:37;14.73;;;7.27;;
41631;SDS011;37452;51.938;4.624;2022-11-20T05:41:06;14.82;;;7.47;;
41631;SDS011;37452;51.938;4.624;2022-11-20T05:43:34;14.87;;;7.97;;
41631;SDS011;37452;51.938;4.624;2022-11-20T05:46:00;14.10;;;6.77;;
41631;SDS011;37452;51.938;4.624;2022-11-20T05:48:25;17.65;;;7.43;;
41631;SDS011;37452;51.938;4.624;2022-11-20T05:50:51;17.00;;;8.48;;
41631;SDS011;37452;51.938;4.624;2022-11-20T05:53:17;14.05;;;7.50;;
41631;SDS011;37452;51.938;4.624;2022-11-20T05:55:42;16.27;;;8.43;;
41631;SDS011;37452;51.938;4.624;2022-11-20T05:58:08;15.32;;;8.30;;
41631;SDS011;37452;51.938;4.624;2022-11-20T06:00:33;19.45;;;7.93;;
41631;SDS011;37452;51.938;4.624;2022-11-20T06:02:59;15.15;;;7.85;;
41631;SDS011;37452;51.938;4.624;2022-11-20T06:05:24;13.30;;;7.38;;
41631;SDS011;37452;51.938;4.624;2022-11-20T06:07:50;16.40;;;8.50;;
41631;SDS011;37452;51.938;4.624;2022-11-20T06:10:15;13.68;;;7.82;;
41631;SDS011;37452;51.938;4.624;2022-11-20T06:12:41;14.82;;;7.47;;
41631;SDS011;37452;51.938;4.624;2022-11-20T06:15:06;15.82;;;8.27;;
41631;SDS011;37452;51.938;4.624;2022-11-20T06:17:32;13.95;;;7.82;;
41631;SDS011;37452;51.938;4.624;2022-11-20T06:19:57;14.20;;;7.68;;
41631;SDS011;37452;51.938;4.624;2022-11-20T06:22:23;12.88;;;7.85;;
41631;SDS011;37452;51.938;4.624;2022-11-20T06:24:48;15.18;;;8.23;;
41631;SDS011;37452;51.938;4.624;2022-11-20T06:27:14;15.40;;;8.55;;
41631;SDS011;37452;51.938;4.624;2022-11-20T06:29:42;14.00;;;7.43;;
41631;SDS011;37452;51.938;4.624;2022-11-20T06:32:07;14.40;;;6.82;;
41631;SDS011;37452;51.938;4.624;2022-11-20T06:34:33;15.60;;;6.95;;
41631;SDS011;37452;51.938;4.624;2022-11-20T06:36:58;15.15;;;7.65;;
41631;SDS011;37452;51.938;4.624;2022-11-20T06:39:24;16.23;;;8.23;;
41631;SDS011;37452;51.938;4.624;2022-11-20T06:41:49;15.45;;;7.00;;
41631;SDS011;37452;51.938;4.624;2022-11-20T06:44:15;17.25;;;8.63;;
41631;SDS011;37452;51.938;4.624;2022-11-20T06:46:40;15.02;;;7.45;;
41631;SDS011;37452;51.938;4.624;2022-11-20T06:49:06;15.00;;;7.88;;
41631;SDS011;37452;51.938;4.624;2022-11-20T06:51:31;13.98;;;7.72;;
41631;SDS011;37452;51.938;4.624;2022-11-20T06:53:57;14.98;;;8.00;;
41631;SDS011;37452;51.938;4.624;2022-11-20T06:56:22;13.60;;;7.53;;
41631;SDS011;37452;51.938;4.624;2022-11-20T06:58:48;16.08;;;8.52;;
41631;SDS011;37452;51.938;4.624;2022-11-20T07:01:14;19.95;;;8.18;;
41631;SDS011;37452;51.938;4.624;2022-11-20T07:06:05;16.60;;;7.40;;
41631;SDS011;37452;51.938;4.624;2022-11-20T07:08:31;13.50;;;7.72;;
41631;SDS011;37452;51.938;4.624;2022-11-20T07:11:01;17.13;;;8.70;;
41631;SDS011;37452;51.938;4.624;2022-11-20T07:13:29;17.80;;;9.17;;
41631;SDS011;37452;51.938;4.624;2022-11-20T07:15:59;17.70;;;8.07;;
41631;SDS011;37452;51.938;4.624;2022-11-20T07:18:29;17.43;;;8.23;;
41631;SDS011;37452;51.938;4.624;2022-11-20T07:20:54;16.02;;;8.10;;
41631;SDS011;37452;51.938;4.624;2022-11-20T07:23:20;12.70;;;7.47;;
41631;SDS011;37452;51.938;4.624;2022-11-20T07:25:45;19.25;;;8.25;;
41631;SDS011;37452;51.938;4.624;2022-11-20T07:28:11;15.68;;;7.68;;
41631;SDS011;37452;51.938;4.624;2022-11-20T07:30:36;14.32;;;8.18;;
41631;SDS011;37452;51.938;4.624;2022-11-20T07:33:02;13.95;;;7.88;;
41631;SDS011;37452;51.938;4.624;2022-11-20T07:35:28;16.58;;;8.00;;
41631;SDS011;37452;51.938;4.624;2022-11-20T07:37:53;19.92;;;9.55;;
41631;SDS011;37452;51.938;4.624;2022-11-20T07:40:19;16.67;;;8.07;;
41631;SDS011;37452;51.938;4.624;2022-11-20T07:42:48;18.10;;;8.73;;
41631;SDS011;37452;51.938;4.624;2022-11-20T07:45:15;15.63;;;8.47;;
41631;SDS011;37452;51.938;4.624;2022-11-20T07:47:40;19.52;;;9.40;;
41631;SDS011;37452;51.938;4.624;2022-11-20T07:50:06;20.40;;;9.48;;
41631;SDS011;37452;51.938;4.624;2022-11-20T07:54:57;21.17;;;9.17;;
41631;SDS011;37452;51.938;4.624;2022-11-20T07:57:23;17.45;;;9.23;;
41631;SDS011;37452;51.938;4.624;2022-11-20T07:59:48;18.13;;;9.50;;
41631;SDS011;37452;51.938;4.624;2022-11-20T08:02:14;18.42;;;9.43;;
41631;SDS011;37452;51.938;4.624;2022-11-20T08:04:39;19.02;;;9.63;;
41631;SDS011;37452;51.938;4.624;2022-11-20T08:07:05;27.33;;;9.45;;
41631;SDS011;37452;51.938;4.624;2022-11-20T08:09:30;22.10;;;9.60;;
41631;SDS011;37452;51.938;4.624;2022-11-20T08:11:56;15.85;;;8.93;;
41631;SDS011;37452;51.938;4.624;2022-11-20T08:14:40;20.03;;;9.67;;
41631;SDS011;37452;51.938;4.624;2022-11-20T08:17:05;19.63;;;10.50;;
41631;SDS011;37452;51.938;4.624;2022-11-20T08:19:31;20.17;;;11.05;;
41631;SDS011;37452;51.938;4.624;2022-11-20T08:21:56;21.08;;;11.43;;
41631;SDS011;37452;51.938;4.624;2022-11-20T08:24:22;18.65;;;10.27;;
41631;SDS011;37452;51.938;4.624;2022-11-20T08:26:47;24.65;;;11.00;;
41631;SDS011;37452;51.938;4.624;2022-11-20T08:29:13;23.73;;;10.55;;
41631;SDS011;37452;51.938;4.624;2022-11-20T08:31:38;18.88;;;10.82;;
41631;SDS011;37452;51.938;4.624;2022-11-20T08:34:04;25.77;;;11.18;;
41631;SDS011;37452;51.938;4.624;2022-11-20T08:36:32;17.63;;;10.38;;
41631;SDS011;37452;51.938;4.624;2022-11-20T08:38:58;19.00;;;10.30;;
41631;SDS011;37452;51.938;4.624;2022-11-20T08:41:24;21.42;;;11.52;;
41631;SDS011;37452;51.938;4.624;2022-11-20T08:44:00;27.43;;;11.80;;
41631;SDS011;37452;51.938;4.624;2022-11-20T08:46:30;18.77;;;9.97;;
41631;SDS011;37452;51.938;4.624;2022-11-20T08:49:02;19.67;;;10.97;;
41631;SDS011;37452;51.938;4.624;2022-11-20T08:51:29;21.63;;;10.57;;
41631;SDS011;37452;51.938;4.624;2022-11-20T08:56:20;16.03;;;9.00;;
41631;SDS011;37452;51.938;4.624;2022-11-20T08:58:45;18.25;;;9.85;;
41631;SDS011;37452;51.938;4.624;2022-11-20T09:01:11;18.75;;;10.43;;
41631;SDS011;37452;51.938;4.624;2022-11-20T09:03:36;20.95;;;10.77;;
41631;SDS011;37452;51.938;4.624;2022-11-20T09:06:03;19.98;;;10.40;;
41631;SDS011;37452;51.938;4.624;2022-11-20T09:08:30;20.73;;;10.20;;
41631;SDS011;37452;51.938;4.624;2022-11-20T09:10:56;21.67;;;10.77;;
41631;SDS011;37452;51.938;4.624;2022-11-20T09:13:23;21.10;;;11.43;;
41631;SDS011;37452;51.938;4.624;2022-11-20T09:15:55;19.83;;;11.13;;
41631;SDS011;37452;51.938;4.624;2022-11-20T09:18:22;20.00;;;10.60;;
41631;SDS011;37452;51.938;4.624;2022-11-20T09:23:14;20.10;;;10.97;;
41631;SDS011;37452;51.938;4.624;2022-11-20T09:25:40;18.45;;;10.48;;
41631;SDS011;37452;51.938;4.624;2022-11-20T09:28:07;21.07;;;11.20;;
41631;SDS011;37452;51.938;4.624;2022-11-20T09:30:32;23.77;;;11.32;;
41631;SDS011;37452;51.938;4.624;2022-11-20T09:32:57;26.20;;;12.60;;
41631;SDS011;37452;51.938;4.624;2022-11-20T09:35:23;22.75;;;12.27;;
41631;SDS011;37452;51.938;4.624;2022-11-20T09:37:49;21.40;;;11.65;;
41631;SDS011;37452;51.938;4.624;2022-11-20T09:40:22;21.20;;;11.30;;
41631;SDS011;37452;51.938;4.624;2022-11-20T09:42:55;21.53;;;11.63;;
41631;SDS011;37452;51.938;4.624;2022-11-20T09:48:20;20.73;;;11.57;;
41631;SDS011;37452;51.938;4.624;2022-11-20T09:56:45;22.87;;;11.67;;
41631;SDS011;37452;51.938;4.624;2022-11-20T09:59:29;22.13;;;12.53;;
41631;SDS011;37452;51.938;4.624;2022-11-20T10:01:57;24.27;;;13.03;;
41631;SDS011;37452;51.938;4.624;2022-11-20T10:04:24;27.23;;;14.03;;
41631;SDS011;37452;51.938;4.624;2022-11-20T10:07:00;27.15;;;13.77;;
41631;SDS011;37452;51.938;4.624;2022-11-20T10:09:32;26.23;;;13.33;;
41631;SDS011;37452;51.938;4.624;2022-11-20T10:14:34;27.23;;;14.03;;
41631;SDS011;37452;51.938;4.624;2022-11-20T10:30:18;24.87;;;13.07;;
41631;SDS011;37452;51.938;4.624;2022-11-20T10:32:52;26.23;;;12.53;;
41631;SDS011;37452;51.938;4.624;2022-11-20T10:38:00;27.00;;;13.27;;
41631;SDS011;37452;51.938;4.624;2022-11-20T10:40:34;27.57;;;14.17;;
41631;SDS011;37452;51.938;4.624;2022-11-20T10:43:01;27.97;;;15.00;;
41631;SDS011;37452;51.938;4.624;2022-11-20T10:48:24;30.00;;;14.07;;
41631;SDS011;37452;51.938;4.624;2022-11-20T10:50:59;27.60;;;13.50;;
41631;SDS011;37452;51.938;4.624;2022-11-20T11:01:59;28.83;;;14.77;;
41631;SDS011;37452;51.938;4.624;2022-11-20T11:06:53;30.23;;;15.00;;
41631;SDS011;37452;51.938;4.624;2022-11-20T11:09:33;30.70;;;14.53;;
41631;SDS011;37452;51.938;4.624;2022-11-20T11:12:05;25.15;;;11.55;;
41631;SDS011;37452;51.938;4.624;2022-11-20T11:14:41;38.87;;;16.50;;
41631;SDS011;37452;51.938;4.624;2022-11-20T11:17:18;35.50;;;17.53;;
41631;SDS011;37452;51.938;4.624;2022-11-20T11:22:49;34.43;;;16.43;;
41631;SDS011;37452;51.938;4.624;2022-11-20T11:25:21;35.33;;;16.63;;
41631;SDS011;37452;51.938;4.624;2022-11-20T11:28:00;30.97;;;15.80;;
41631;SDS011;37452;51.938;4.624;2022-11-20T11:30:45;35.28;;;16.02;;
41631;SDS011;37452;51.938;4.624;2022-11-20T11:33:17;38.65;;;16.92;;
41631;SDS011;37452;51.938;4.624;2022-11-20T11:35:46;35.93;;;16.90;;
41631;SDS011;37452;51.938;4.624;2022-11-20T11:38:39;35.70;;;17.63;;
41631;SDS011;37452;51.938;4.624;2022-11-20T11:41:19;35.90;;;17.67;;
41631;SDS011;37452;51.938;4.624;2022-11-20T11:43:54;39.30;;;18.47;;
41631;SDS011;37452;51.938;4.624;2022-11-20T11:46:44;34.13;;;16.80;;
41631;SDS011;37452;51.938;4.624;2022-11-20T11:49:18;39.37;;;17.93;;
41631;SDS011;37452;51.938;4.624;2022-11-20T11:54:58;36.03;;;17.10;;
41631;SDS011;37452;51.938;4.624;2022-11-20T12:00:18;38.63;;;17.60;;
41631;SDS011;37452;51.938;4.624;2022-11-20T12:05:21;41.13;;;17.70;;
41631;SDS011;37452;51.938;4.624;2022-11-20T12:15:57;36.10;;;17.57;;
41631;SDS011;37452;51.938;4.624;2022-11-20T12:18:23;36.53;;;16.90;;
41631;SDS011;37452;51.938;4.624;2022-11-20T12:23:53;33.83;;;16.57;;
41631;SDS011;37452;51.938;4.624;2022-11-20T12:29:06;33.10;;;16.97;;
41631;SDS011;37452;51.938;4.624;2022-11-20T12:31:42;36.80;;;17.30;;
41631;SDS011;37452;51.938;4.624;2022-11-20T12:39:41;37.37;;;17.10;;
41631;SDS011;37452;51.938;4.624;2022-11-20T12:42:17;42.27;;;19.20;;
41631;SDS011;37452;51.938;4.624;2022-11-20T12:50:43;41.87;;;17.90;;
41631;SDS011;37452;51.938;4.624;2022-11-20T13:04:25;42.00;;;18.83;;
41631;SDS011;37452;51.938;4.624;2022-11-20T13:06:54;39.73;;;17.73;;
41631;SDS011;37452;51.938;4.624;2022-11-20T13:09:21;47.77;;;18.73;;
41631;SDS011;37452;51.938;4.624;2022-11-20T13:17:21;45.80;;;19.03;;
41631;SDS011;37452;51.938;4.624;2022-11-20T13:19:55;44.00;;;19.37;;
41631;SDS011;37452;51.938;4.624;2022-11-20T13:22:27;50.70;;;20.73;;
41631;SDS011;37452;51.938;4.624;2022-11-20T13:24:54;44.83;;;19.17;;
41631;SDS011;37452;51.938;4.624;2022-11-20T13:27:23;50.28;;;20.08;;
41631;SDS011;37452;51.938;4.624;2022-11-20T13:29:59;45.67;;;20.33;;
41631;SDS011;37452;51.938;4.624;2022-11-20T13:32:27;45.93;;;20.23;;
41631;SDS011;37452;51.938;4.624;2022-11-20T13:34:58;42.90;;;19.93;;
41631;SDS011;37452;51.938;4.624;2022-11-20T13:37:35;52.97;;;21.60;;
41631;SDS011;37452;51.938;4.624;2022-11-20T13:42:38;48.30;;;20.23;;
41631;SDS011;37452;51.938;4.624;2022-11-20T13:45:10;47.87;;;21.20;;
41631;SDS011;37452;51.938;4.624;2022-11-20T13:47:57;46.10;;;20.57;;
41631;SDS011;37452;51.938;4.624;2022-11-20T13:56:46;46.67;;;21.00;;
41631;SDS011;37452;51.938;4.624;2022-11-20T14:02:05;50.20;;;21.90;;
41631;SDS011;37452;51.938;4.624;2022-11-20T14:04:38;50.07;;;23.07;;
41631;SDS011;37452;51.938;4.624;2022-11-20T14:07:11;58.67;;;23.47;;
41631;SDS011;37452;51.938;4.624;2022-11-20T14:09:37;55.20;;;24.10;;
41631;SDS011;37452;51.938;4.624;2022-11-20T14:12:03;52.67;;;21.23;;
41631;SDS011;37452;51.938;4.624;2022-11-20T14:14:47;48.53;;;21.87;;
41631;SDS011;37452;51.938;4.624;2022-11-20T14:17:18;52.77;;;21.93;;
41631;SDS011;37452;51.938;4.624;2022-11-20T14:19:45;55.47;;;22.20;;
41631;SDS011;37452;51.938;4.624;2022-11-20T14:24:46;58.40;;;24.00;;
41631;SDS011;37452;51.938;4.624;2022-11-20T14:27:14;53.17;;;22.40;;
41631;SDS011;37452;51.938;4.624;2022-11-20T14:29:42;60.60;;;23.23;;
41631;SDS011;37452;51.938;4.624;2022-11-20T14:32:09;63.27;;;22.37;;
41631;SDS011;37452;51.938;4.624;2022-11-20T14:34:37;52.38;;;19.38;;
41631;SDS011;37452;51.938;4.624;2022-11-20T14:37:09;58.23;;;23.13;;
41631;SDS011;37452;51.938;4.624;2022-11-20T14:39:40;57.70;;;23.03;;
41631;SDS011;37452;51.938;4.624;2022-11-20T14:42:14;56.03;;;23.17;;
41631;SDS011;37452;51.938;4.624;2022-11-20T14:44:41;57.80;;;21.47;;
41631;SDS011;37452;51.938;4.624;2022-11-20T14:47:08;63.97;;;22.50;;
41631;SDS011;37452;51.938;4.624;2022-11-20T14:49:37;57.77;;;23.10;;
41631;SDS011;37452;51.938;4.624;2022-11-20T14:54:59;56.77;;;22.67;;
41631;SDS011;37452;51.938;4.624;2022-11-20T15:02:43;58.10;;;22.60;;
41631;SDS011;37452;51.938;4.624;2022-11-20T15:05:11;55.10;;;22.97;;
41631;SDS011;37452;51.938;4.624;2022-11-20T15:07:41;60.03;;;23.75;;
41631;SDS011;37452;51.938;4.624;2022-11-20T15:12:59;58.53;;;24.17;;
41631;SDS011;37452;51.938;4.624;2022-11-20T15:18:10;57.90;;;22.07;;
41631;SDS011;37452;51.938;4.624;2022-11-20T15:20:38;53.77;;;21.77;;
41631;SDS011;37452;51.938;4.624;2022-11-20T15:23:13;56.50;;;23.17;;
41631;SDS011;37452;51.938;4.624;2022-11-20T15:25:40;57.13;;;22.37;;
41631;SDS011;37452;51.938;4.624;2022-11-20T15:28:20;63.40;;;25.00;;
41631;SDS011;37452;51.938;4.624;2022-11-20T15:30:50;62.93;;;22.93;;
41631;SDS011;37452;51.938;4.624;2022-11-20T15:33:16;57.58;;;22.17;;
41631;SDS011;37452;51.938;4.624;2022-11-20T15:35:43;62.20;;;23.40;;
41631;SDS011;37452;51.938;4.624;2022-11-20T15:38:09;53.43;;;22.93;;
41631;SDS011;37452;51.938;4.624;2022-11-20T15:40:34;59.42;;;24.90;;
41631;SDS011;37452;51.938;4.624;2022-11-20T15:43:00;61.72;;;25.42;;
41631;SDS011;37452;51.938;4.624;2022-11-20T15:45:39;53.03;;;23.43;;
41631;SDS011;37452;51.938;4.624;2022-11-20T15:48:08;55.50;;;23.73;;
41631;SDS011;37452;51.938;4.624;2022-11-20T15:51:02;61.47;;;23.37;;
41631;SDS011;37452;51.938;4.624;2022-11-20T15:53:38;60.37;;;25.00;;
41631;SDS011;37452;51.938;4.624;2022-11-20T15:56:05;56.23;;;23.93;;
41631;SDS011;37452;51.938;4.624;2022-11-20T15:58:31;56.87;;;23.00;;
41631;SDS011;37452;51.938;4.624;2022-11-20T16:00:56;53.10;;;22.65;;
41631;SDS011;37452;51.938;4.624;2022-11-20T16:03:22;61.72;;;23.15;;
41631;SDS011;37452;51.938;4.624;2022-11-20T16:05:48;49.80;;;20.98;;
41631;SDS011;37452;51.938;4.624;2022-11-20T16:08:14;60.63;;;21.85;;
41631;SDS011;37452;51.938;4.624;2022-11-20T16:10:40;48.55;;;21.02;;
41631;SDS011;37452;51.938;4.624;2022-11-20T16:13:11;52.92;;;22.45;;
41631;SDS011;37452;51.938;4.624;2022-11-20T16:15:57;51.77;;;20.13;;
41631;SDS011;37452;51.938;4.624;2022-11-20T16:18:24;41.93;;;18.33;;
41631;SDS011;37452;51.938;4.624;2022-11-20T16:20:51;48.05;;;20.77;;
41631;SDS011;37452;51.938;4.624;2022-11-20T16:23:18;41.63;;;19.00;;
41631;SDS011;37452;51.938;4.624;2022-11-20T16:25:45;46.23;;;19.23;;
41631;SDS011;37452;51.938;4.624;2022-11-20T16:30:38;42.50;;;17.33;;
41631;SDS011;37452;51.938;4.624;2022-11-20T16:33:04;40.00;;;16.67;;
41631;SDS011;37452;51.938;4.624;2022-11-20T16:35:34;36.30;;;16.67;;
41631;SDS011;37452;51.938;4.624;2022-11-20T16:38:00;39.85;;;18.25;;
41631;SDS011;37452;51.938;4.624;2022-11-20T16:40:25;37.65;;;18.70;;
41631;SDS011;37452;51.938;4.624;2022-11-20T16:42:51;42.13;;;18.40;;
41631;SDS011;37452;51.938;4.624;2022-11-20T16:45:16;41.60;;;19.10;;
41631;SDS011;37452;51.938;4.624;2022-11-20T16:47:42;39.13;;;19.60;;
41631;SDS011;37452;51.938;4.624;2022-11-20T16:50:08;42.25;;;19.13;;
41631;SDS011;37452;51.938;4.624;2022-11-20T16:52:34;42.03;;;19.77;;
41631;SDS011;37452;51.938;4.624;2022-11-20T16:55:00;44.33;;;19.60;;
41631;SDS011;37452;51.938;4.624;2022-11-20T16:57:29;41.58;;;20.23;;
41631;SDS011;37452;51.938;4.624;2022-11-20T16:59:57;37.83;;;18.60;;
41631;SDS011;37452;51.938;4.624;2022-11-20T17:02:24;41.37;;;18.80;;
41631;SDS011;37452;51.938;4.624;2022-11-20T17:04:50;33.65;;;16.92;;